Aurora, CO

7:33 PM MDT on September 23, 2014 (GMT -0600)
Denver | Change Station
CLOSE
Current Station
Airport
Location: Denver,
Elevation: 5430 ft
Nearby Weather Stations

Elev 5430 ft 39.85 °N, 104.66 °W | Updated 40 minutes ago

Mostly Cloudy
Mostly Cloudy
71 °F
Feels Like 71 °F
N
4
Wind Variable Wind from NE

Today
High -- | Low -- °F
--% Chance of Precip.
Yesterday
High -- | Low -- °F
Precip. -- in
6:47 AM 6:54 PM
Waning Crescent, 0% visible
Pressure 29.96 in
Visibility 10.0 miles
Clouds Scattered Clouds 8000 ft
Mostly Cloudy 12000 ft
Dew Point 43 °F
Humidity 36%
Rainfall 0.00 in
Snow Depth 0 in , 0 in , 187 in
UV 0 out of 12
Pollen 6.10 out of 12
Ozone Good
PM2.5 Good
Flu Activity Not available.
METAR KDEN 240053Z 05003KT 10SM SCT080 BKN120 22/06 A3015 RMK AO2 SLP143 VIRGA T02170061

More Conditions Fewer Conditions

Pressure 29.96 in
Visibility 10.0 miles
Clouds Scattered Clouds 8000 ft
Mostly Cloudy 12000 ft
Dew Point 43 °F
Humidity 36%
Rainfall 0.00 in
Snow Depth 0 in , 0 in , 187 in
UV 0 out of 12
Pollen 6.10 out of 12
Ozone Good
PM2.5 Good
Flu Activity Not available.
METAR KDEN 240053Z 05003KT 10SM SCT080 BKN120 22/06 A3015 RMK AO2 SLP143 VIRGA T02170061

More Conditions Fewer Conditions

10-Day Weather Forecast

Almanac

Astronomy

Sep. 23, 2014 Rise Set
Actual Time 6:47 AM MDT 6:54 PM MDT
Civil Twilight 6:20 AM MDT 7:20 PM MDT
Nautical Twilight 5:48 AM MDT 7:52 PM MDT
Astronomical Twilight 5:16 AM MDT 8:24 PM MDT
Moon 6:13 AM MDT (9/23) 6:34 PM MDT (9/23)
Length of Visible Light 13h 00m
Length of Day
12h 06m
Tomorrow will be 2m 36s shorter.
Waning Crescent, 0% of the Moon is Illuminated
Today
Waning Crescent
Sep 24
New
Oct 1
First Quarter
Oct 8
Full
Oct 15
Last Quarter

Today's Extremes

State Highs State Lows

Community

WunderPhotos

Upload Photos

1,755,844 photos uploaded!

Nearby

Air Quality

  Air Quality AQ Index Pollutant
Yesterday Good
OZONE
Yesterday Good
PM10
Current Good
OZONE
Current Good
PM2.5
Tuesday Good
OZONE
Tuesday Good
PM2.5
Wednesday Good
OZONE
Wednesday Good
PM2.5

Snow Depth

Station Depth Elevation
Lizard Head Pass 0 in 10200 ft
Brumley 0 in 10600 ft
Independence Pass 187 in 10600 ft
Grizzly Peak 0 in 11100 ft
Niwot 0 in 9910 ft

Earthquake Activity

City Distance Mag. Time & Date
No recent earthquake activity has been reported nearby.
Minimum magnitude displayed is 2.5.

Coastal Water Temperatures

Place Temperature
No Stations Reporting

Nearby Weather Stations